createdAt,value
2019-06-27T00:00:59.369Z,97.70
2019-06-27T00:03:25.455Z,97.60
2019-06-27T00:05:51.539Z,97.70
2019-06-27T00:08:17.579Z,97.70
2019-06-27T00:10:43.933Z,97.50
2019-06-27T00:13:10.301Z,97.60
2019-06-27T00:15:36.357Z,98.00
2019-06-27T00:18:02.501Z,98.30
2019-06-27T00:20:28.675Z,98.90
2019-06-27T00:22:54.827Z,99.20
2019-06-27T00:25:20.897Z,99.10
2019-06-27T00:27:47.021Z,99.20
2019-06-27T00:30:13.475Z,98.90
2019-06-27T00:32:39.559Z,98.60
2019-06-27T00:35:06.415Z,98.80
2019-06-27T00:37:32.536Z,99.00
2019-06-27T00:39:58.584Z,99.00
2019-06-27T00:42:24.715Z,99.10
2019-06-27T00:44:50.771Z,99.00
2019-06-27T00:47:16.813Z,99.00
2019-06-27T00:49:43.957Z,98.80
2019-06-27T00:52:10.026Z,99.20
2019-06-27T00:54:36.175Z,99.20
2019-06-27T00:57:13.597Z,99.20
2019-06-27T00:59:30.395Z,99.40
2019-06-27T01:01:56.517Z,99.50
2019-06-27T01:04:22.674Z,99.50
2019-06-27T01:06:48.827Z,99.40
2019-06-27T01:09:14.894Z,99.40
2019-06-27T01:11:41.031Z,99.40
2019-06-27T01:14:07.106Z,99.70
2019-06-27T01:16:33.171Z,99.80
2019-06-27T01:19:00.417Z,99.80
2019-06-27T01:21:26.540Z,99.50
2019-06-27T01:23:52.619Z,99.50
2019-06-27T01:26:18.659Z,99.50
2019-06-27T01:28:44.733Z,99.30
2019-06-27T01:31:10.840Z,99.30
2019-06-27T01:33:36.917Z,99.30
2019-06-27T01:36:03.126Z,99.40
2019-06-27T01:38:29.234Z,99.50
2019-06-27T01:40:55.297Z,99.70
2019-06-27T01:43:21.338Z,99.90
2019-06-27T01:45:52.076Z,99.80
2019-06-27T01:48:18.103Z,99.90
2019-06-27T01:50:44.147Z,99.90
2019-06-27T01:53:10.321Z,99.90
2019-06-27T01:55:36.380Z,99.90
2019-06-27T01:58:02.425Z,99.90
2019-06-27T02:00:28.770Z,99.90
2019-06-27T02:02:54.819Z,99.90
2019-06-27T02:05:20.972Z,99.90
2019-06-27T02:07:47.037Z,99.90
2019-06-27T02:10:13.588Z,99.90
2019-06-27T02:12:39.741Z,99.90
2019-06-27T02:15:06.786Z,99.90
2019-06-27T02:17:33.030Z,99.90
2019-06-27T02:19:59.120Z,99.90
2019-06-27T02:22:25.269Z,99.90
2019-06-27T02:24:51.316Z,99.90
2019-06-27T02:27:17.378Z,99.90
2019-06-27T02:29:43.453Z,99.90
2019-06-27T02:32:09.515Z,99.90
2019-06-27T02:34:35.630Z,99.90
2019-06-27T02:37:01.679Z,99.90
2019-06-27T02:39:27.736Z,99.90
2019-06-27T02:41:53.775Z,99.90
2019-06-27T02:44:19.817Z,99.90
2019-06-27T02:46:45.893Z,99.90
2019-06-27T02:49:12.034Z,99.90
2019-06-27T02:51:38.074Z,99.90
2019-06-27T02:54:04.129Z,99.90
2019-06-27T02:56:30.154Z,99.90
2019-06-27T02:58:56.223Z,99.90
2019-06-27T03:01:22.379Z,99.90
2019-06-27T03:03:48.421Z,99.90
2019-06-27T03:06:14.465Z,99.90
2019-06-27T03:08:40.552Z,99.90
2019-06-27T03:11:06.608Z,99.90
2019-06-27T03:13:32.683Z,99.90
2019-06-27T03:15:59.551Z,99.90
2019-06-27T03:18:25.702Z,99.90
2019-06-27T03:20:51.755Z,99.90
2019-06-27T03:23:17.840Z,99.90
2019-06-27T03:25:43.943Z,99.90
2019-06-27T03:28:10.086Z,99.90
2019-06-27T03:30:36.299Z,99.90
2019-06-27T03:33:02.535Z,99.90
2019-06-27T03:35:28.655Z,99.90
2019-06-27T03:37:54.689Z,99.90
2019-06-27T03:40:20.863Z,99.90
2019-06-27T03:42:47.013Z,99.90
2019-06-27T03:45:15.934Z,99.90
2019-06-27T03:47:41.098Z,99.90
2019-06-27T03:50:07.295Z,99.90
2019-06-27T03:52:33.368Z,99.90
2019-06-27T03:55:00.835Z,99.90
2019-06-27T03:57:26.953Z,99.90
2019-06-27T03:59:53.028Z,99.90
2019-06-27T04:02:21.051Z,99.90
2019-06-27T04:04:47.177Z,99.90
2019-06-27T04:07:13.309Z,99.90
2019-06-27T04:09:39.441Z,99.90
2019-06-27T04:12:05.584Z,99.90
2019-06-27T04:14:31.696Z,99.90
2019-06-27T04:16:57.903Z,99.90
2019-06-27T04:19:24.060Z,99.90
2019-06-27T04:21:50.217Z,99.90
2019-06-27T04:24:16.275Z,99.90
2019-06-27T04:26:42.527Z,99.90
2019-06-27T04:29:08.612Z,99.90
2019-06-27T04:31:34.777Z,99.90
2019-06-27T04:34:00.847Z,99.90
2019-06-27T04:36:26.891Z,99.90
2019-06-27T04:38:53.002Z,99.90
2019-06-27T04:41:19.127Z,99.90
2019-06-27T04:43:45.284Z,99.90
2019-06-27T04:46:11.333Z,99.90
2019-06-27T04:48:37.533Z,99.90
2019-06-27T04:51:03.664Z,99.90
2019-06-27T04:53:31.654Z,99.90
2019-06-27T04:55:57.792Z,99.90
2019-06-27T04:58:23.941Z,99.90
2019-06-27T05:00:50.082Z,99.90
2019-06-27T05:03:16.231Z,99.90
2019-06-27T05:05:42.330Z,99.90
2019-06-27T05:08:08.418Z,99.90
2019-06-27T05:10:34.506Z,99.90
2019-06-27T05:13:01.079Z,99.90
2019-06-27T05:15:28.095Z,99.90
2019-06-27T05:17:57.161Z,99.90
2019-06-27T05:20:23.648Z,99.90
2019-06-27T05:22:50.404Z,99.90
2019-06-27T05:25:29.773Z,99.90
2019-06-27T05:27:55.979Z,99.90
2019-06-27T05:30:22.359Z,99.90
2019-06-27T05:32:48.491Z,99.90
2019-06-27T05:35:14.579Z,99.90
2019-06-27T05:37:40.655Z,99.90
2019-06-27T05:40:07.624Z,99.90
2019-06-27T05:42:33.677Z,99.90
2019-06-27T05:44:59.722Z,99.90
2019-06-27T05:47:25.787Z,99.90
2019-06-27T05:49:51.824Z,99.90
2019-06-27T05:52:17.873Z,99.90
2019-06-27T05:54:43.947Z,99.90
2019-06-27T05:57:10.060Z,99.90
2019-06-27T05:59:36.119Z,99.90
2019-06-27T06:02:02.204Z,99.90
2019-06-27T06:04:28.317Z,99.90
2019-06-27T06:06:54.425Z,99.90
2019-06-27T06:09:20.693Z,99.90
2019-06-27T06:11:46.867Z,99.90
2019-06-27T06:14:12.892Z,99.90
2019-06-27T06:16:39.047Z,99.90
2019-06-27T06:19:05.094Z,99.90
2019-06-27T06:21:31.236Z,99.90
2019-06-27T06:23:57.301Z,99.90
2019-06-27T06:26:23.323Z,99.90
2019-06-27T06:28:49.398Z,99.90
2019-06-27T06:31:15.478Z,99.90
2019-06-27T06:33:41.541Z,99.90
2019-06-27T06:36:07.738Z,99.90
2019-06-27T06:38:33.761Z,99.90
2019-06-27T06:40:59.792Z,99.90
2019-06-27T06:43:25.829Z,99.90
2019-06-27T06:45:51.906Z,99.90
2019-06-27T06:48:17.952Z,99.90
2019-06-27T06:50:44.009Z,99.90
2019-06-27T06:53:10.054Z,99.90
2019-06-27T06:55:36.143Z,99.90
2019-06-27T06:58:02.315Z,99.90
2019-06-27T07:00:28.570Z,99.90
2019-06-27T07:02:54.709Z,99.90
2019-06-27T07:05:20.749Z,99.90
2019-06-27T07:07:46.822Z,99.90
2019-06-27T07:10:14.338Z,99.90
2019-06-27T07:12:40.405Z,99.50
2019-06-27T07:15:06.859Z,99.80
2019-06-27T07:17:32.934Z,99.30
2019-06-27T07:19:58.962Z,99.30
2019-06-27T07:22:25.023Z,99.50
2019-06-27T07:24:51.059Z,99.50
2019-06-27T07:27:17.128Z,99.20
2019-06-27T07:29:43.170Z,99.20
2019-06-27T07:32:09.220Z,99.20
2019-06-27T07:34:35.439Z,99.40
2019-06-27T07:37:01.458Z,99.20
2019-06-27T07:39:27.622Z,98.90
2019-06-27T07:41:53.754Z,99.10
2019-06-27T07:44:20.464Z,99.10
2019-06-27T07:46:46.650Z,99.10
2019-06-27T07:49:12.695Z,99.10
2019-06-27T07:51:38.735Z,99.10
2019-06-27T07:54:04.812Z,99.20
2019-06-27T07:56:30.864Z,99.40
2019-06-27T07:58:56.895Z,99.20
2019-06-27T08:01:34.573Z,99.20
2019-06-27T08:03:50.887Z,99.60
2019-06-27T08:06:16.949Z,99.10
2019-06-27T08:08:42.971Z,99.40
2019-06-27T08:11:09.040Z,98.80
2019-06-27T08:13:35.203Z,98.50
2019-06-27T08:16:01.243Z,98.10
2019-06-27T08:18:28.421Z,97.90
2019-06-27T08:20:54.655Z,97.50
2019-06-27T08:23:20.813Z,98.00
2019-06-27T08:25:46.861Z,97.60
2019-06-27T08:28:12.921Z,97.40
2019-06-27T08:30:39.007Z,97.20
2019-06-27T08:33:05.047Z,97.20
2019-06-27T08:35:33.494Z,97.00
2019-06-27T08:37:59.135Z,97.10
2019-06-27T08:40:25.277Z,97.10
2019-06-27T08:42:51.335Z,97.00
2019-06-27T08:45:17.489Z,97.00
2019-06-27T08:47:43.616Z,96.60
2019-06-27T08:50:09.883Z,96.50
2019-06-27T08:52:36.025Z,95.90
2019-06-27T08:55:06.018Z,96.40
2019-06-27T08:57:32.058Z,95.90
2019-06-27T08:59:58.121Z,95.70
2019-06-27T09:02:24.185Z,95.40
2019-06-27T09:05:57.643Z,95.50
2019-06-27T09:08:23.656Z,95.30
2019-06-27T09:10:49.710Z,94.70
2019-06-27T09:13:15.755Z,94.80
2019-06-27T09:15:41.829Z,94.30
2019-06-27T09:18:07.878Z,94.20
2019-06-27T09:20:33.983Z,94.00
2019-06-27T09:23:00.245Z,94.20
2019-06-27T09:25:26.344Z,93.70
2019-06-27T09:27:52.381Z,93.00
2019-06-27T09:30:18.600Z,92.60
2019-06-27T09:32:44.781Z,92.60
2019-06-27T09:35:11.554Z,92.40
2019-06-27T09:37:37.730Z,92.10
2019-06-27T09:40:05.612Z,91.70
2019-06-27T09:42:31.715Z,91.60
2019-06-27T09:44:57.807Z,91.80
2019-06-27T09:47:23.861Z,91.10
2019-06-27T09:49:49.921Z,91.50
2019-06-27T09:52:16.077Z,90.80
2019-06-27T09:54:42.140Z,90.60
2019-06-27T09:57:08.205Z,90.10
2019-06-27T09:59:34.248Z,90.10
2019-06-27T10:02:00.465Z,90.10
2019-06-27T10:04:26.554Z,89.90
2019-06-27T10:06:52.618Z,88.90
2019-06-27T10:09:18.660Z,88.30
2019-06-27T10:11:44.812Z,88.60
2019-06-27T10:14:10.872Z,88.20
2019-06-27T10:16:36.899Z,87.50
2019-06-27T10:19:03.067Z,88.30
2019-06-27T10:21:29.145Z,87.80
2019-06-27T10:23:55.191Z,87.90
2019-06-27T10:26:21.242Z,85.60
2019-06-27T10:28:47.406Z,86.20
2019-06-27T10:31:13.438Z,86.40
2019-06-27T10:33:39.464Z,85.50
2019-06-27T10:36:05.523Z,86.50
2019-06-27T10:38:31.585Z,85.30
2019-06-27T10:40:57.721Z,84.30
2019-06-27T10:43:23.765Z,84.60
2019-06-27T10:45:49.832Z,85.70
2019-06-27T10:48:15.888Z,84.60
2019-06-27T10:50:41.979Z,84.10
2019-06-27T10:53:08.063Z,83.80
2019-06-27T10:55:34.121Z,84.20
2019-06-27T10:58:00.169Z,83.10
2019-06-27T11:00:26.238Z,83.40
2019-06-27T11:02:52.303Z,80.10
2019-06-27T11:05:18.496Z,81.80
2019-06-27T11:07:44.655Z,79.30
2019-06-27T11:10:11.021Z,79.30
2019-06-27T11:12:38.151Z,80.00
2019-06-27T11:15:08.609Z,78.70
2019-06-27T11:17:34.771Z,79.20
2019-06-27T11:20:00.835Z,78.50
2019-06-27T11:22:26.891Z,79.50
2019-06-27T11:24:53.120Z,77.20
2019-06-27T11:27:19.277Z,76.50
2019-06-27T11:29:45.383Z,77.50
2019-06-27T11:32:11.469Z,77.20
2019-06-27T11:34:37.520Z,77.10
2019-06-27T11:37:03.559Z,77.20
2019-06-27T11:39:29.610Z,75.60
2019-06-27T11:41:55.661Z,75.20
2019-06-27T11:44:21.723Z,74.10
2019-06-27T11:46:47.738Z,73.80
2019-06-27T11:49:13.821Z,74.70
2019-06-27T11:51:39.858Z,74.00
2019-06-27T11:54:06.047Z,72.30
2019-06-27T11:56:32.073Z,72.60
2019-06-27T11:58:58.142Z,70.70
2019-06-27T12:01:24.210Z,71.10
2019-06-27T12:03:50.249Z,70.80
2019-06-27T12:06:16.290Z,70.90
2019-06-27T12:08:42.351Z,69.50
2019-06-27T12:11:08.411Z,69.40
2019-06-27T12:13:34.497Z,68.70
2019-06-27T12:16:00.547Z,68.40
2019-06-27T12:18:26.620Z,66.90
2019-06-27T12:20:52.811Z,65.70
2019-06-27T12:23:18.841Z,67.00
2019-06-27T12:25:44.902Z,66.40
2019-06-27T12:28:10.975Z,64.80
2019-06-27T12:30:37.059Z,65.40
2019-06-27T12:33:03.137Z,65.10
2019-06-27T12:35:29.157Z,64.60
2019-06-27T12:37:55.201Z,64.60
2019-06-27T12:40:22.104Z,65.30
2019-06-27T12:42:48.474Z,65.60
2019-06-27T12:45:15.075Z,65.10
2019-06-27T12:47:41.382Z,63.30
2019-06-27T12:50:08.403Z,64.60
2019-06-27T12:52:34.485Z,63.80
2019-06-27T12:55:00.587Z,62.80
2019-06-27T12:57:26.669Z,62.40
2019-06-27T12:59:52.848Z,61.70
2019-06-27T13:02:18.896Z,61.80
2019-06-27T13:04:44.929Z,60.90
2019-06-27T13:07:11.109Z,60.30
2019-06-27T13:09:37.153Z,60.70
2019-06-27T13:12:25.007Z,60.40
2019-06-27T13:14:51.141Z,60.70
2019-06-27T13:17:17.161Z,61.00
2019-06-27T13:19:43.200Z,60.30
2019-06-27T13:22:09.242Z,60.70
2019-06-27T13:24:35.298Z,59.80
2019-06-27T13:27:01.431Z,60.20
2019-06-27T13:29:27.481Z,59.50
2019-06-27T13:31:53.557Z,59.50
2019-06-27T13:34:19.617Z,60.30
2019-06-27T13:36:45.690Z,59.50
2019-06-27T13:39:11.850Z,58.80
2019-06-27T13:41:37.900Z,59.70
2019-06-27T13:44:04.570Z,60.00
2019-06-27T13:46:30.609Z,60.30
2019-06-27T13:48:56.655Z,59.70
2019-06-27T13:51:22.717Z,59.90
2019-06-27T13:53:48.783Z,60.30
2019-06-27T13:56:14.880Z,59.40
2019-06-27T13:58:40.938Z,60.40
2019-06-27T14:01:10.665Z,60.80
2019-06-27T14:03:48.620Z,61.10
2019-06-27T14:06:03.119Z,60.20
2019-06-27T14:08:29.259Z,60.40
2019-06-27T14:10:55.319Z,61.60
2019-06-27T14:13:21.440Z,60.70
2019-06-27T14:15:47.473Z,61.00
2019-06-27T14:18:13.573Z,61.30
2019-06-27T14:20:39.621Z,61.10
2019-06-27T14:23:05.701Z,61.30
2019-06-27T14:25:31.799Z,61.50
2019-06-27T14:27:57.846Z,62.20
2019-06-27T14:30:24.412Z,63.10
2019-06-27T14:32:53.290Z,61.80
2019-06-27T14:35:18.449Z,61.90
2019-06-27T14:37:44.596Z,62.50
2019-06-27T14:40:11.311Z,62.40
2019-06-27T14:42:37.443Z,63.30
2019-06-27T14:45:05.423Z,62.90
2019-06-27T14:47:31.523Z,64.70
2019-06-27T14:49:57.628Z,64.10
2019-06-27T14:52:23.786Z,64.60
2019-06-27T14:54:49.844Z,65.30
2019-06-27T14:57:15.898Z,65.50
2019-06-27T14:59:41.936Z,65.30
2019-06-27T15:02:08.094Z,65.60
2019-06-27T15:04:34.143Z,65.80
2019-06-27T15:07:00.180Z,66.50
2019-06-27T15:09:26.219Z,67.00
2019-06-27T15:11:52.280Z,67.30
2019-06-27T15:14:18.365Z,67.10
2019-06-27T15:16:44.422Z,67.50
2019-06-27T15:19:10.472Z,67.70
2019-06-27T15:21:36.516Z,68.00
2019-06-27T15:24:02.775Z,68.40
2019-06-27T15:26:28.858Z,68.20
2019-06-27T15:28:54.907Z,68.90
2019-06-27T15:31:22.372Z,68.20
2019-06-27T15:33:48.712Z,68.60
2019-06-27T15:36:14.927Z,67.50
2019-06-27T15:38:41.089Z,68.00
2019-06-27T15:41:07.149Z,68.30
2019-06-27T15:43:33.275Z,68.20
2019-06-27T15:45:59.400Z,67.50
2019-06-27T15:48:25.507Z,67.30
2019-06-27T15:50:51.632Z,67.20
2019-06-27T15:53:17.672Z,66.90
2019-06-27T15:55:45.663Z,67.10
2019-06-27T15:58:11.720Z,67.30
2019-06-27T16:00:39.422Z,68.20
2019-06-27T16:03:05.701Z,67.90
2019-06-27T16:05:32.082Z,67.20
2019-06-27T16:07:58.200Z,67.00
2019-06-27T16:10:24.315Z,67.20
2019-06-27T16:12:50.337Z,67.70
2019-06-27T16:15:16.617Z,68.50
2019-06-27T16:17:42.701Z,68.90
2019-06-27T16:20:10.472Z,68.30
2019-06-27T16:22:36.644Z,69.10
2019-06-27T16:25:04.390Z,68.50
2019-06-27T16:27:30.504Z,68.30
2019-06-27T16:29:56.599Z,67.90
2019-06-27T16:32:22.631Z,68.20
2019-06-27T16:34:48.749Z,69.00
2019-06-27T16:37:14.929Z,69.00
2019-06-27T16:39:41.003Z,68.00
2019-06-27T16:42:07.099Z,68.20
2019-06-27T16:44:33.256Z,68.60
2019-06-27T16:46:59.408Z,68.50
2019-06-27T16:49:25.469Z,67.40
2019-06-27T16:51:51.513Z,66.70
2019-06-27T16:54:17.584Z,66.70
2019-06-27T16:56:43.613Z,66.20
2019-06-27T16:59:09.675Z,65.40
2019-06-27T17:01:35.872Z,65.30
2019-06-27T17:04:02.083Z,65.40
2019-06-27T17:06:40.879Z,66.10
2019-06-27T17:08:56.084Z,65.40
2019-06-27T17:11:22.173Z,64.50
2019-06-27T17:13:48.309Z,64.80
2019-06-27T17:16:14.359Z,63.60
2019-06-27T17:18:40.408Z,63.80
2019-06-27T17:21:06.473Z,63.70
2019-06-27T17:23:32.523Z,63.10
2019-06-27T17:25:58.618Z,62.80
2019-06-27T17:28:24.663Z,62.60
2019-06-27T17:30:50.760Z,61.70
2019-06-27T17:33:17.871Z,61.90
2019-06-27T17:35:43.982Z,62.50
2019-06-27T17:38:10.078Z,61.30
2019-06-27T17:40:36.280Z,61.30
2019-06-27T17:43:02.330Z,60.70
2019-06-27T17:45:28.386Z,60.80
2019-06-27T17:47:54.544Z,60.90
2019-06-27T17:50:20.699Z,60.80
2019-06-27T17:52:46.850Z,59.40
2019-06-27T17:55:12.989Z,59.50
2019-06-27T17:57:39.444Z,60.10
2019-06-27T18:00:05.893Z,59.80
2019-06-27T18:02:31.973Z,58.80
2019-06-27T18:04:58.136Z,58.60
2019-06-27T18:07:24.210Z,59.00
2019-06-27T18:09:50.291Z,58.70
2019-06-27T18:12:16.367Z,57.90
2019-06-27T18:14:42.420Z,56.40
2019-06-27T18:17:08.468Z,56.60
2019-06-27T18:19:34.521Z,56.70
2019-06-27T18:22:00.574Z,56.50
2019-06-27T18:24:26.627Z,56.30
2019-06-27T18:26:52.698Z,56.70
2019-06-27T18:29:18.745Z,56.40
2019-06-27T18:31:44.793Z,56.10
2019-06-27T18:34:10.925Z,56.40
2019-06-27T18:36:36.985Z,56.30
2019-06-27T18:39:04.508Z,55.40
2019-06-27T18:41:30.554Z,55.30
2019-06-27T18:43:56.628Z,55.40
2019-06-27T18:46:22.690Z,55.00
2019-06-27T18:48:51.829Z,54.80
2019-06-27T18:51:16.828Z,54.90
2019-06-27T18:53:42.848Z,55.50
2019-06-27T18:56:08.891Z,55.70
2019-06-27T18:58:35.100Z,55.50
2019-06-27T19:01:01.135Z,55.60
2019-06-27T19:03:27.249Z,55.30
2019-06-27T19:05:53.357Z,54.80
2019-06-27T19:08:19.389Z,55.20
2019-06-27T19:10:45.615Z,55.40
2019-06-27T19:13:11.665Z,55.20
2019-06-27T19:15:37.715Z,55.30
2019-06-27T19:18:05.784Z,55.10
2019-06-27T19:20:33.808Z,55.00
2019-06-27T19:23:01.879Z,55.10
2019-06-27T19:25:30.001Z,53.90
2019-06-27T19:27:56.077Z,53.10
2019-06-27T19:30:22.130Z,53.00
2019-06-27T19:32:48.194Z,52.90
2019-06-27T19:35:14.215Z,52.70
2019-06-27T19:37:40.379Z,52.90
2019-06-27T19:40:06.785Z,52.90
2019-06-27T19:42:32.905Z,53.20
2019-06-27T19:44:59.059Z,53.40
2019-06-27T19:47:25.120Z,53.00
2019-06-27T19:49:51.249Z,52.70
2019-06-27T19:52:17.292Z,52.80
2019-06-27T19:54:43.345Z,51.20
2019-06-27T19:57:09.400Z,52.40
2019-06-27T19:59:35.459Z,53.00
2019-06-27T20:02:01.526Z,53.70
2019-06-27T20:04:27.653Z,52.10
2019-06-27T20:06:53.749Z,53.30
2019-06-27T20:09:19.780Z,53.20
2019-06-27T20:11:45.838Z,53.20
2019-06-27T20:14:11.909Z,53.80
2019-06-27T20:16:37.939Z,53.80
2019-06-27T20:19:05.981Z,53.70
2019-06-27T20:21:31.952Z,53.90
2019-06-27T20:23:58.234Z,53.90
2019-06-27T20:26:24.420Z,53.70
2019-06-27T20:28:50.477Z,53.70
2019-06-27T20:31:16.540Z,54.00
2019-06-27T20:33:42.605Z,54.30
2019-06-27T20:36:08.820Z,53.70
2019-06-27T20:38:35.543Z,53.90
2019-06-27T20:41:01.953Z,53.90
2019-06-27T20:43:27.974Z,54.10
2019-06-27T20:45:55.069Z,53.60
2019-06-27T20:48:21.130Z,53.80
2019-06-27T20:50:47.168Z,54.50
2019-06-27T20:53:13.238Z,54.50
2019-06-27T20:55:39.274Z,54.10
2019-06-27T20:58:05.356Z,55.70
2019-06-27T21:00:31.401Z,56.90
2019-06-27T21:02:57.472Z,56.80
2019-06-27T21:05:23.499Z,57.10
2019-06-27T21:07:49.559Z,56.60
2019-06-27T21:10:17.226Z,56.70
2019-06-27T21:12:43.378Z,56.80
2019-06-27T21:15:10.003Z,56.50
2019-06-27T21:17:36.123Z,56.40
2019-06-27T21:20:04.685Z,56.30
2019-06-27T21:22:30.837Z,56.10
2019-06-27T21:24:56.896Z,56.30
2019-06-27T21:27:23.051Z,55.50
2019-06-27T21:29:49.117Z,54.90
2019-06-27T21:32:30.524Z,55.70
2019-06-27T21:34:43.128Z,55.90
2019-06-27T21:37:09.281Z,56.30
2019-06-27T21:39:35.473Z,57.10
2019-06-27T21:42:01.512Z,56.80
2019-06-27T21:44:27.549Z,56.30
2019-06-27T21:46:53.613Z,56.20
2019-06-27T21:49:19.795Z,56.90
2019-06-27T21:51:45.855Z,58.10
2019-06-27T21:54:12.012Z,58.90
2019-06-27T21:56:38.060Z,58.70
2019-06-27T21:59:04.085Z,59.10
2019-06-27T22:01:30.258Z,58.60
2019-06-27T22:03:56.289Z,58.90
2019-06-27T22:06:22.432Z,59.50
2019-06-27T22:08:48.475Z,60.10
2019-06-27T22:11:14.500Z,60.20
2019-06-27T22:13:40.594Z,60.70
2019-06-27T22:16:06.687Z,60.90
2019-06-27T22:18:32.739Z,61.40
2019-06-27T22:20:58.798Z,61.40
2019-06-27T22:23:24.842Z,61.30
2019-06-27T22:25:50.893Z,62.00
2019-06-27T22:28:16.957Z,62.30
2019-06-27T22:30:43.001Z,62.20
2019-06-27T22:33:09.062Z,62.40
2019-06-27T22:35:35.178Z,62.60
2019-06-27T22:38:20.150Z,62.90
2019-06-27T22:41:05.021Z,63.70
2019-06-27T22:43:49.320Z,62.90
2019-06-27T22:46:33.902Z,63.10
2019-06-27T22:48:59.871Z,63.50
2019-06-27T22:51:34.128Z,63.80
2019-06-27T22:54:02.544Z,63.90
2019-06-27T22:56:28.660Z,64.00
2019-06-27T22:58:54.709Z,64.10
2019-06-27T23:01:20.748Z,64.20
2019-06-27T23:03:46.789Z,64.20
2019-06-27T23:06:12.853Z,64.50
2019-06-27T23:08:38.868Z,64.30
2019-06-27T23:11:04.925Z,64.60
2019-06-27T23:13:30.982Z,64.60
2019-06-27T23:15:57.031Z,64.60
2019-06-27T23:18:23.291Z,64.80
2019-06-27T23:20:49.453Z,65.40
2019-06-27T23:23:15.530Z,65.40
2019-06-27T23:25:41.572Z,65.40
2019-06-27T23:28:07.741Z,65.40
2019-06-27T23:30:33.778Z,65.30
2019-06-27T23:33:05.815Z,65.90
2019-06-27T23:35:31.929Z,65.50
2019-06-27T23:37:58.002Z,65.60
2019-06-27T23:40:24.099Z,65.90
2019-06-27T23:42:50.157Z,66.10
2019-06-27T23:45:16.226Z,66.10
2019-06-27T23:47:42.300Z,66.30
2019-06-27T23:50:09.058Z,66.70
2019-06-27T23:52:35.100Z,66.80
2019-06-27T23:55:01.999Z,66.70
2019-06-27T23:57:28.058Z,66.90
2019-06-27T23:59:54.148Z,67.00
